createdAt,value
2018-11-04T00:01:17.286Z,20.90
2018-11-04T00:03:45.553Z,17.33
2018-11-04T00:06:13.774Z,30.07
2018-11-04T00:08:42.034Z,16.50
2018-11-04T00:11:10.214Z,16.90
2018-11-04T00:13:38.451Z,16.67
2018-11-04T00:16:06.650Z,18.70
2018-11-04T00:18:34.925Z,18.53
2018-11-04T00:21:03.162Z,15.00
2018-11-04T00:23:31.391Z,14.53
2018-11-04T00:25:59.633Z,17.30
2018-11-04T00:28:27.879Z,24.13
2018-11-04T00:30:56.153Z,21.97
2018-11-04T00:33:24.377Z,15.03
2018-11-04T00:35:52.595Z,16.57
2018-11-04T00:38:20.826Z,16.53
2018-11-04T00:40:49.048Z,18.10
2018-11-04T00:43:17.260Z,19.30
2018-11-04T00:45:45.504Z,17.47
2018-11-04T00:48:13.758Z,16.90
2018-11-04T00:50:41.963Z,20.27
2018-11-04T00:53:10.171Z,15.30
2018-11-04T00:55:39.256Z,16.53
2018-11-04T00:58:07.498Z,18.83
2018-11-04T01:00:35.702Z,16.60
2018-11-04T01:03:04.004Z,16.33
2018-11-04T01:05:32.219Z,15.27
2018-11-04T01:08:00.430Z,17.50
2018-11-04T01:10:28.656Z,16.07
2018-11-04T01:12:57.211Z,16.50
2018-11-04T01:15:25.447Z,13.67
2018-11-04T01:17:53.655Z,17.87
2018-11-04T01:20:21.897Z,14.90
2018-11-04T01:22:50.135Z,16.93
2018-11-04T01:25:18.355Z,21.33
2018-11-04T01:27:46.567Z,20.83
2018-11-04T01:30:15.433Z,49.00
2018-11-04T01:32:44.124Z,30.40
2018-11-04T01:35:12.371Z,22.40
2018-11-04T01:37:40.587Z,21.20
2018-11-04T01:40:09.684Z,18.67
2018-11-04T01:42:37.982Z,14.23
2018-11-04T01:45:07.811Z,14.07
2018-11-04T01:47:36.332Z,14.47
2018-11-04T01:50:05.388Z,17.13
2018-11-04T01:52:33.671Z,25.93
2018-11-04T01:55:01.919Z,20.00
2018-11-04T01:57:30.142Z,21.40
2018-11-04T01:59:58.412Z,40.53
2018-11-04T02:02:26.647Z,23.43
2018-11-04T02:04:54.867Z,22.73
2018-11-04T02:07:23.103Z,24.03
2018-11-04T02:09:51.319Z,22.63
2018-11-04T02:12:19.553Z,19.93
2018-11-04T02:14:47.797Z,21.07
2018-11-04T02:17:16.007Z,19.97
2018-11-04T02:19:44.203Z,23.40
2018-11-04T02:22:12.410Z,23.73
2018-11-04T02:24:40.618Z,20.23
2018-11-04T02:27:08.843Z,20.37
2018-11-04T02:29:37.066Z,20.20
2018-11-04T02:32:06.009Z,24.90
2018-11-04T02:34:34.225Z,19.63
2018-11-04T02:37:02.432Z,21.87
2018-11-04T02:39:30.671Z,16.67
2018-11-04T02:41:58.936Z,19.83
2018-11-04T02:44:27.180Z,15.90
2018-11-04T02:46:55.509Z,17.10
2018-11-04T02:49:23.618Z,18.93
2018-11-04T02:51:51.866Z,23.80
2018-11-04T02:54:20.084Z,17.97
2018-11-04T02:56:48.362Z,21.23
2018-11-04T02:59:16.610Z,19.03
2018-11-04T03:01:44.883Z,22.17
2018-11-04T03:04:13.059Z,15.87
2018-11-04T03:06:41.295Z,18.07
2018-11-04T03:09:10.257Z,18.53
2018-11-04T03:11:38.507Z,18.00
2018-11-04T03:14:06.720Z,16.67
2018-11-04T03:16:34.946Z,13.97
2018-11-04T03:19:03.217Z,17.27
2018-11-04T03:21:31.480Z,15.47
2018-11-04T03:23:59.687Z,16.00
2018-11-04T03:26:27.874Z,14.93
2018-11-04T03:28:56.271Z,15.87
2018-11-04T03:31:24.479Z,16.47
2018-11-04T03:33:52.701Z,14.90
2018-11-04T03:36:20.927Z,16.13
2018-11-04T03:38:49.159Z,18.23
2018-11-04T03:41:17.379Z,16.23
2018-11-04T03:43:45.594Z,17.23
2018-11-04T03:46:13.802Z,17.17
2018-11-04T03:48:42.099Z,17.47
2018-11-04T03:51:10.299Z,16.33
2018-11-04T03:53:38.628Z,16.57
2018-11-04T03:56:06.829Z,17.47
2018-11-04T03:58:35.111Z,20.13
2018-11-04T04:01:03.311Z,17.53
2018-11-04T04:03:31.533Z,17.73
2018-11-04T04:05:59.753Z,19.37
2018-11-04T04:08:27.983Z,21.23
2018-11-04T04:10:56.187Z,17.33
2018-11-04T04:13:24.409Z,18.67
2018-11-04T04:15:52.645Z,17.50
2018-11-04T04:18:20.871Z,20.93
2018-11-04T04:20:53.343Z,18.00
2018-11-04T04:23:21.574Z,17.40
2018-11-04T04:25:49.799Z,16.97
2018-11-04T04:28:18.036Z,19.00
2018-11-04T04:30:46.302Z,24.60
2018-11-04T04:33:14.556Z,20.40
2018-11-04T04:35:49.316Z,16.63
2018-11-04T04:38:17.575Z,16.67
2018-11-04T04:40:45.811Z,17.67
2018-11-04T04:43:14.033Z,17.47
2018-11-04T04:45:42.292Z,17.90
2018-11-04T04:48:10.572Z,18.57
2018-11-04T04:50:38.789Z,15.23
2018-11-04T04:53:07.200Z,17.10
2018-11-04T04:55:35.399Z,18.60
2018-11-04T04:58:03.627Z,18.70
2018-11-04T05:00:31.851Z,18.97
2018-11-04T05:03:00.113Z,17.60
2018-11-04T05:05:28.340Z,19.40
2018-11-04T05:07:56.616Z,17.17
2018-11-04T05:10:24.865Z,20.33
2018-11-04T05:12:53.291Z,17.37
2018-11-04T05:15:21.503Z,18.43
2018-11-04T05:17:49.779Z,17.57
2018-11-04T05:20:17.995Z,20.40
2018-11-04T05:22:46.272Z,16.70
2018-11-04T05:25:14.492Z,17.00
2018-11-04T05:27:42.743Z,19.60
2018-11-04T05:30:11.939Z,18.33
2018-11-04T05:32:40.246Z,20.53
2018-11-04T05:35:08.553Z,19.33
2018-11-04T05:37:37.490Z,18.13
2018-11-04T05:40:06.251Z,16.67
2018-11-04T05:42:34.506Z,24.37
2018-11-04T05:45:03.054Z,19.47
2018-11-04T05:47:31.271Z,18.37
2018-11-04T05:49:59.495Z,18.17
2018-11-04T05:52:27.728Z,18.07
2018-11-04T05:54:55.939Z,20.10
2018-11-04T05:57:24.192Z,17.77
2018-11-04T05:59:52.424Z,18.97
2018-11-04T06:02:20.665Z,19.30
2018-11-04T06:04:48.947Z,20.90
2018-11-04T06:07:17.191Z,18.97
2018-11-04T06:09:45.436Z,17.60
2018-11-04T06:12:13.664Z,17.33
2018-11-04T06:14:41.913Z,16.70
2018-11-04T06:17:10.144Z,17.60
2018-11-04T06:19:38.480Z,20.37
2018-11-04T06:22:06.690Z,19.23
2018-11-04T06:24:34.903Z,17.37
2018-11-04T06:27:03.132Z,18.73
2018-11-04T06:29:31.353Z,18.97
2018-11-04T06:31:59.586Z,18.37
2018-11-04T06:34:27.859Z,17.60
2018-11-04T06:36:56.071Z,19.07
2018-11-04T06:39:24.290Z,17.20
2018-11-04T06:41:52.523Z,23.00
2018-11-04T06:44:20.737Z,17.83
2018-11-04T06:46:48.999Z,16.93
2018-11-04T06:49:17.251Z,18.90
2018-11-04T06:51:45.530Z,19.97
2018-11-04T06:54:13.823Z,19.77
2018-11-04T06:56:42.091Z,21.63
2018-11-04T06:59:10.350Z,16.90
2018-11-04T07:01:38.642Z,19.10
2018-11-04T07:04:34.315Z,18.17
2018-11-04T07:07:02.552Z,18.53
2018-11-04T07:09:30.822Z,19.03
2018-11-04T07:11:59.039Z,15.57
2018-11-04T07:14:27.281Z,15.77
2018-11-04T07:16:55.496Z,17.43
2018-11-04T07:19:26.956Z,19.30
2018-11-04T07:21:55.240Z,19.10
2018-11-04T07:24:23.463Z,20.20
2018-11-04T07:26:51.765Z,17.63
2018-11-04T07:29:19.981Z,21.57
2018-11-04T07:31:48.221Z,19.50
2018-11-04T07:34:16.530Z,22.87
2018-11-04T07:36:44.757Z,16.27
2018-11-04T07:39:13.752Z,20.87
2018-11-04T07:41:42.094Z,17.67
2018-11-04T07:44:10.441Z,18.93
2018-11-04T07:46:38.682Z,18.23
2018-11-04T07:49:06.908Z,21.77
2018-11-04T07:51:35.236Z,18.63
2018-11-04T07:54:03.401Z,18.17
2018-11-04T07:56:31.608Z,19.07
2018-11-04T07:58:59.896Z,25.77
2018-11-04T08:01:28.128Z,21.37
2018-11-04T08:03:56.495Z,19.87
2018-11-04T08:06:24.663Z,24.10
2018-11-04T08:08:52.912Z,23.33
2018-11-04T08:11:21.161Z,27.20
2018-11-04T08:13:49.381Z,26.43
2018-11-04T08:16:17.655Z,21.83
2018-11-04T08:18:46.047Z,24.53
2018-11-04T08:21:14.341Z,26.13
2018-11-04T08:23:42.513Z,21.93
2018-11-04T08:26:10.759Z,28.27
2018-11-04T08:28:39.017Z,23.03
2018-11-04T08:31:07.263Z,23.40
2018-11-04T08:33:35.539Z,26.10
2018-11-04T08:36:03.770Z,23.70
2018-11-04T08:38:32.015Z,22.30
2018-11-04T08:41:00.272Z,25.40
2018-11-04T08:43:28.504Z,23.57
2018-11-04T08:45:56.853Z,30.43
2018-11-04T08:48:25.054Z,22.50
2018-11-04T08:50:53.308Z,26.03
2018-11-04T08:53:21.525Z,26.87
2018-11-04T08:55:49.824Z,24.77
2018-11-04T08:58:18.281Z,25.47
2018-11-04T09:00:46.515Z,25.77
2018-11-04T09:03:14.776Z,24.20
2018-11-04T09:05:43.060Z,23.83
2018-11-04T09:08:11.271Z,27.20
2018-11-04T09:10:39.531Z,32.43
2018-11-04T09:13:07.829Z,24.27
2018-11-04T09:15:36.097Z,23.60
2018-11-04T09:18:04.351Z,21.43
2018-11-04T09:20:32.624Z,25.73
2018-11-04T09:23:00.888Z,26.37
2018-11-04T09:25:29.142Z,27.87
2018-11-04T09:27:57.381Z,26.30
2018-11-04T09:30:25.658Z,25.30
2018-11-04T09:32:54.000Z,24.20
2018-11-04T09:35:22.329Z,24.17
2018-11-04T09:37:50.520Z,27.53
2018-11-04T09:40:18.832Z,22.30
2018-11-04T09:42:47.094Z,24.77
2018-11-04T09:45:15.369Z,27.60
2018-11-04T09:47:44.464Z,21.83
2018-11-04T09:50:12.945Z,25.90
2018-11-04T09:52:41.227Z,23.53
2018-11-04T09:55:10.679Z,23.83
2018-11-04T09:57:38.953Z,24.97
2018-11-04T10:00:08.663Z,26.30
2018-11-04T10:02:37.161Z,25.83
2018-11-04T10:05:06.394Z,26.73
2018-11-04T10:07:34.675Z,26.07
2018-11-04T10:10:03.014Z,26.30
2018-11-04T10:12:31.283Z,28.53
2018-11-04T10:14:59.550Z,23.93
2018-11-04T10:17:27.885Z,62.10
2018-11-04T10:19:56.560Z,25.47
2018-11-04T10:22:24.481Z,41.37
2018-11-04T10:24:52.721Z,27.93
2018-11-04T10:27:20.991Z,23.70
2018-11-04T10:29:49.224Z,28.87
2018-11-04T10:32:17.469Z,25.60
2018-11-04T10:34:45.704Z,25.17
2018-11-04T10:37:13.968Z,24.53
2018-11-04T10:39:42.194Z,23.57
2018-11-04T10:42:10.512Z,27.43
2018-11-04T10:44:38.730Z,25.87
2018-11-04T10:47:06.971Z,23.97
2018-11-04T10:49:35.331Z,26.50
2018-11-04T10:52:06.708Z,26.57
2018-11-04T10:54:34.926Z,23.27
2018-11-04T10:57:03.176Z,24.57
2018-11-04T10:59:31.389Z,26.63
2018-11-04T11:01:59.693Z,25.23
2018-11-04T11:04:28.033Z,27.10
2018-11-04T11:06:56.248Z,24.30
2018-11-04T11:09:24.514Z,26.93
2018-11-04T11:11:52.827Z,26.50
2018-11-04T11:14:21.278Z,26.40
2018-11-04T11:16:49.540Z,24.43
2018-11-04T11:19:17.768Z,27.40
2018-11-04T11:21:49.036Z,39.13
2018-11-04T11:24:17.262Z,32.17
2018-11-04T11:26:45.675Z,29.50
2018-11-04T11:29:14.058Z,22.63
2018-11-04T11:31:42.296Z,28.33
2018-11-04T11:34:10.561Z,24.30
2018-11-04T11:36:38.836Z,25.67
2018-11-04T11:39:09.881Z,25.33
2018-11-04T11:41:38.208Z,25.20
2018-11-04T11:44:06.452Z,24.33
2018-11-04T11:46:34.683Z,24.53
2018-11-04T11:49:02.982Z,29.23
2018-11-04T11:51:31.274Z,26.43
2018-11-04T11:53:59.523Z,30.47
2018-11-04T11:56:27.767Z,22.63
2018-11-04T11:58:56.033Z,27.03
2018-11-04T12:01:24.316Z,22.67
2018-11-04T12:03:52.544Z,26.87
2018-11-04T12:06:20.801Z,26.93
2018-11-04T12:08:49.133Z,25.97
2018-11-04T12:11:17.376Z,29.50
2018-11-04T12:13:45.694Z,28.77
2018-11-04T12:16:14.025Z,27.00
2018-11-04T12:18:42.360Z,27.27
2018-11-04T12:21:10.647Z,32.63
2018-11-04T12:23:38.880Z,25.97
2018-11-04T12:26:07.175Z,25.17
2018-11-04T12:28:35.405Z,26.87
2018-11-04T12:31:03.650Z,25.73
2018-11-04T12:33:31.896Z,28.23
2018-11-04T12:36:00.155Z,25.80
2018-11-04T12:38:29.017Z,24.87
2018-11-04T12:40:57.276Z,26.40
2018-11-04T12:43:25.591Z,29.00
2018-11-04T12:45:53.890Z,25.73
2018-11-04T12:48:22.083Z,30.63
2018-11-04T12:50:50.298Z,26.00
2018-11-04T12:53:18.568Z,27.63
2018-11-04T12:55:46.785Z,26.10
2018-11-04T12:58:15.005Z,30.47
2018-11-04T13:00:43.239Z,27.27
2018-11-04T13:03:11.507Z,25.53
2018-11-04T13:05:39.727Z,30.40
2018-11-04T13:08:07.931Z,26.03
2018-11-04T13:10:36.270Z,39.60
2018-11-04T13:13:04.768Z,24.67
2018-11-04T13:15:33.012Z,28.93
2018-11-04T13:18:01.289Z,26.77
2018-11-04T13:20:29.563Z,26.87
2018-11-04T13:22:57.800Z,25.90
2018-11-04T13:25:26.091Z,30.60
2018-11-04T13:27:54.499Z,27.47
2018-11-04T13:30:22.707Z,26.10
2018-11-04T13:32:50.946Z,28.90
2018-11-04T13:35:19.230Z,29.17
2018-11-04T13:37:47.457Z,30.43
2018-11-04T13:40:15.724Z,28.90
2018-11-04T13:42:43.959Z,32.27
2018-11-04T13:45:12.454Z,32.67
2018-11-04T13:47:40.692Z,32.37
2018-11-04T13:50:10.642Z,29.33
2018-11-04T13:52:38.889Z,30.27
2018-11-04T13:55:07.435Z,32.57
2018-11-04T13:57:35.700Z,24.77
2018-11-04T14:00:03.967Z,28.87
2018-11-04T14:02:32.209Z,29.40
2018-11-04T14:05:00.452Z,29.60
2018-11-04T14:07:28.672Z,29.43
2018-11-04T14:09:56.965Z,35.20
2018-11-04T14:12:25.270Z,29.03
2018-11-04T14:14:53.467Z,28.83
2018-11-04T14:17:21.724Z,29.00
2018-11-04T14:19:49.991Z,27.53
2018-11-04T14:22:18.207Z,31.60
2018-11-04T14:24:46.532Z,28.17
2018-11-04T14:27:14.755Z,29.90
2018-11-04T14:29:43.019Z,28.33
2018-11-04T14:32:11.261Z,31.40
2018-11-04T14:34:39.502Z,26.77
2018-11-04T14:37:07.759Z,29.43
2018-11-04T14:39:35.986Z,27.70
2018-11-04T14:42:04.234Z,35.90
2018-11-04T14:44:32.470Z,28.77
2018-11-04T14:47:00.756Z,26.77
2018-11-04T14:49:29.044Z,22.73
2018-11-04T14:51:57.263Z,29.90
2018-11-04T14:54:25.499Z,32.90
2018-11-04T14:56:53.743Z,28.70
2018-11-04T14:59:21.987Z,32.80
2018-11-04T15:01:50.329Z,29.17
2018-11-04T15:04:18.491Z,22.10
2018-11-04T15:06:46.739Z,25.77
2018-11-04T15:09:15.003Z,29.40
2018-11-04T15:11:43.681Z,26.13
2018-11-04T15:14:12.215Z,25.40
2018-11-04T15:16:40.722Z,25.90
2018-11-04T15:19:09.363Z,26.13
2018-11-04T15:21:37.744Z,26.07
2018-11-04T15:24:06.300Z,28.77
2018-11-04T15:26:34.896Z,24.57
2018-11-04T15:29:03.429Z,25.40
2018-11-04T15:31:32.291Z,24.23
2018-11-04T15:34:00.897Z,26.03
2018-11-04T15:36:29.444Z,25.90
2018-11-04T15:38:58.129Z,24.83
2018-11-04T15:41:26.558Z,23.90
2018-11-04T15:43:55.062Z,28.43
2018-11-04T15:46:24.519Z,25.53
2018-11-04T15:48:52.974Z,28.13
2018-11-04T15:51:21.805Z,30.33
2018-11-04T15:53:50.550Z,25.37
2018-11-04T15:56:19.193Z,76.53
2018-11-04T15:58:47.757Z,25.80
2018-11-04T16:01:16.227Z,28.90
2018-11-04T16:03:44.733Z,24.07
2018-11-04T16:06:13.187Z,29.30
2018-11-04T16:08:41.726Z,25.73
2018-11-04T16:11:10.365Z,35.00
2018-11-04T16:13:38.579Z,25.20
2018-11-04T16:16:06.888Z,25.57
2018-11-04T16:18:35.583Z,32.90
2018-11-04T16:21:03.974Z,28.30
2018-11-04T16:23:32.468Z,24.37
2018-11-04T16:26:01.166Z,26.17
2018-11-04T16:28:30.660Z,26.47
2018-11-04T16:30:59.408Z,23.67
2018-11-04T16:33:28.015Z,25.07
2018-11-04T16:35:57.189Z,26.07
2018-11-04T16:38:25.501Z,28.13
2018-11-04T16:40:53.857Z,24.47
2018-11-04T16:43:22.175Z,26.17
2018-11-04T16:45:50.371Z,33.17
2018-11-04T16:48:18.590Z,32.03
2018-11-04T16:50:46.831Z,28.20
2018-11-04T16:53:15.151Z,27.80
2018-11-04T16:55:43.424Z,27.83
2018-11-04T16:58:11.684Z,24.83
2018-11-04T17:00:40.015Z,25.87
2018-11-04T17:03:08.255Z,29.30
2018-11-04T17:05:36.649Z,27.17
2018-11-04T17:08:04.811Z,24.17
2018-11-04T17:10:33.090Z,24.83
2018-11-04T17:13:01.365Z,23.40
2018-11-04T17:15:29.599Z,24.13
2018-11-04T17:17:57.964Z,22.47
2018-11-04T17:20:26.282Z,24.87
2018-11-04T17:22:54.578Z,25.60
2018-11-04T17:25:22.786Z,24.73
2018-11-04T17:27:51.033Z,31.87
2018-11-04T17:30:19.513Z,29.47
2018-11-04T17:32:48.202Z,26.07
2018-11-04T17:35:17.141Z,22.23
2018-11-04T17:37:45.695Z,25.07
2018-11-04T17:40:14.691Z,23.97
2018-11-04T17:42:43.054Z,22.50
2018-11-04T17:45:12.659Z,23.13
2018-11-04T17:47:40.990Z,23.20
2018-11-04T17:50:15.599Z,24.93
2018-11-04T17:52:49.782Z,22.40
2018-11-04T17:55:18.035Z,25.00
2018-11-04T17:57:46.460Z,24.83
2018-11-04T18:00:15.872Z,22.87
2018-11-04T18:02:44.296Z,25.50
2018-11-04T18:05:13.236Z,28.03
2018-11-04T18:07:41.916Z,26.07
2018-11-04T18:10:11.097Z,29.37
2018-11-04T18:12:39.390Z,27.70
2018-11-04T18:15:08.057Z,23.40
2018-11-04T18:17:36.326Z,23.23
2018-11-04T18:20:05.239Z,20.00
2018-11-04T18:22:33.523Z,20.73
2018-11-04T18:25:01.787Z,19.60
2018-11-04T18:27:30.094Z,21.80
2018-11-04T18:29:58.451Z,20.57
2018-11-04T18:32:27.417Z,18.57
2018-11-04T18:34:55.700Z,24.10
2018-11-04T18:37:24.494Z,21.57
2018-11-04T18:39:52.792Z,23.07
2018-11-04T18:42:21.145Z,21.77
2018-11-04T18:44:49.449Z,20.37
2018-11-04T18:47:17.735Z,24.23
2018-11-04T18:49:45.959Z,21.57
2018-11-04T18:52:14.293Z,36.43
2018-11-04T18:54:42.504Z,24.93
2018-11-04T18:57:10.768Z,21.13
2018-11-04T18:59:39.040Z,20.70
2018-11-04T19:02:07.300Z,20.00
2018-11-04T19:04:35.769Z,22.10
2018-11-04T19:07:04.020Z,19.43
2018-11-04T19:09:32.292Z,22.67
2018-11-04T19:12:00.532Z,24.07
2018-11-04T19:14:28.914Z,22.43
2018-11-04T19:16:57.204Z,22.63
2018-11-04T19:19:25.454Z,21.47
2018-11-04T19:21:53.921Z,19.80
2018-11-04T19:24:22.200Z,18.63
2018-11-04T19:26:50.459Z,20.93
2018-11-04T19:29:18.732Z,17.97
2018-11-04T19:31:47.116Z,19.73
2018-11-04T19:37:27.357Z,19.70
2018-11-04T19:39:55.615Z,17.43
2018-11-04T19:42:24.407Z,18.17
2018-11-04T19:44:52.874Z,17.67
2018-11-04T19:47:21.246Z,14.90
2018-11-04T19:49:49.609Z,18.07
2018-11-04T19:52:18.026Z,14.67
2018-11-04T19:54:46.401Z,16.07
2018-11-04T19:57:15.451Z,16.43
2018-11-04T19:59:44.629Z,16.20
2018-11-04T20:02:13.023Z,17.67
2018-11-04T20:04:41.395Z,18.90
2018-11-04T20:07:09.778Z,16.73
2018-11-04T20:09:38.135Z,16.83
2018-11-04T20:12:10.695Z,16.83
2018-11-04T20:14:39.049Z,17.10
2018-11-04T20:17:07.389Z,18.17
2018-11-04T20:19:41.697Z,20.37
2018-11-04T20:22:09.926Z,20.27
2018-11-04T20:24:43.674Z,15.77
2018-11-04T20:27:12.268Z,20.77
2018-11-04T20:29:40.524Z,16.43
2018-11-04T20:32:14.453Z,18.00
2018-11-04T20:34:42.751Z,16.07
2018-11-04T20:37:11.315Z,12.77
2018-11-04T20:39:45.058Z,15.77
2018-11-04T20:42:13.436Z,18.20
2018-11-04T20:44:45.623Z,15.43
2018-11-04T20:47:14.812Z,14.20
2018-11-04T20:49:48.589Z,15.47
2018-11-04T20:52:17.652Z,15.37
2018-11-04T20:54:46.063Z,15.83
2018-11-04T20:57:19.668Z,15.77
2018-11-04T20:59:48.016Z,15.80
2018-11-04T21:02:16.640Z,12.87
2018-11-04T21:04:44.756Z,13.07
2018-11-04T21:07:13.153Z,13.83
2018-11-04T21:09:41.606Z,13.47
2018-11-04T21:12:10.009Z,15.67
2018-11-04T21:14:38.427Z,12.83
2018-11-04T21:17:06.924Z,15.30
2018-11-04T21:19:38.289Z,15.87
2018-11-04T21:22:09.433Z,17.33
2018-11-04T21:24:38.060Z,15.67
2018-11-04T21:27:06.532Z,15.23
2018-11-04T21:29:38.161Z,14.57
2018-11-04T21:32:06.650Z,13.53
2018-11-04T21:34:35.239Z,17.13
2018-11-04T21:37:05.029Z,14.93
2018-11-04T21:39:33.481Z,13.77
2018-11-04T21:42:02.119Z,18.10
2018-11-04T21:44:30.650Z,16.73
2018-11-04T21:46:58.974Z,14.50
2018-11-04T21:49:27.429Z,14.90
2018-11-04T21:51:55.774Z,12.77
2018-11-04T21:54:25.163Z,16.33
2018-11-04T21:56:53.436Z,12.70
2018-11-04T21:59:21.768Z,18.27
2018-11-04T22:01:50.200Z,15.87
2018-11-04T22:04:18.815Z,14.90
2018-11-04T22:06:47.430Z,13.10
2018-11-04T22:09:15.904Z,14.87
2018-11-04T22:11:44.156Z,14.53
2018-11-04T22:14:12.585Z,16.53
2018-11-04T22:16:41.143Z,14.43
2018-11-04T22:19:09.560Z,14.63
2018-11-04T22:21:37.905Z,16.00
2018-11-04T22:24:06.292Z,14.00
2018-11-04T22:26:34.791Z,13.27
2018-11-04T22:29:04.346Z,15.97
2018-11-04T22:31:33.735Z,14.17
2018-11-04T22:34:02.078Z,16.10
2018-11-04T22:36:30.526Z,13.67
2018-11-04T22:38:58.848Z,12.83
2018-11-04T22:41:27.281Z,17.13
2018-11-04T22:43:55.648Z,14.80
2018-11-04T22:46:23.982Z,11.70
2018-11-04T22:48:54.674Z,12.30
2018-11-04T22:51:22.997Z,13.97
2018-11-04T22:53:51.642Z,12.07
2018-11-04T22:56:20.014Z,14.47
2018-11-04T22:58:48.265Z,13.73
2018-11-04T23:01:16.536Z,14.77
2018-11-04T23:03:44.795Z,12.97
2018-11-04T23:06:13.166Z,13.30
2018-11-04T23:08:41.427Z,15.47
2018-11-04T23:11:09.727Z,12.43
2018-11-04T23:13:37.975Z,10.00
2018-11-04T23:16:06.284Z,13.47
2018-11-04T23:18:34.627Z,13.20
2018-11-04T23:21:02.832Z,13.73
2018-11-04T23:23:31.166Z,10.83
2018-11-04T23:25:59.503Z,11.20
2018-11-04T23:28:27.739Z,13.37
2018-11-04T23:30:55.964Z,11.47
2018-11-04T23:33:24.195Z,10.00
2018-11-04T23:35:52.436Z,10.03
2018-11-04T23:38:20.693Z,11.83
2018-11-04T23:40:48.983Z,13.57
2018-11-04T23:43:17.244Z,12.37
2018-11-04T23:45:45.467Z,11.17
2018-11-04T23:48:13.831Z,11.17
2018-11-04T23:50:42.097Z,10.67
2018-11-04T23:53:10.320Z,11.83
2018-11-04T23:55:38.566Z,12.70
2018-11-04T23:58:09.542Z,12.97
